Airfield :
LOGIN :

Register | Disclaimer

   EN    FR    IT 

 










Legend :    VFR   Marginal VFR   IFR   Intensive IFR   Very Intensive IFR
Visi :
Ceiling :
>= 8 km
>= 3000ft
5 to 8 km
1000 to 3000 ft
1500m to 5 km
500 to 1000 ft
800 to 1500m
200 to 500 ft
< 800m
< 200 ft
Symbols :   Thunderstorms  Fog  Heavy snow  Heavy precipitations  Wind > 20 kt
SIGMETs :     Misc.  Thunderstorms  Icing  Turbulence  Mountain Waves  Volcanic Ashes







- Airport Elevation : 39 ft
- IATA code : ANR


EBAW - Anvers / Antwerpen Deurne

CURRENT METAR :
  • 170050Z AUTO 26003KT 220V300 4300 RA BKN002/// 16/15 Q1016

EXPIRED METARs :
  • 170020Z AUTO 29005KT 9999 -RA BKN005/// BKN006/// OVC017/// 17/16 Q1016 RERA
  • 162350Z AUTO 30006KT 8000 RA SCT002/// BKN006/// 17/16 Q1016 RERA
  • 162320Z AUTO 29008KT 250V050 9999 -RA SCT008/// BKN009/// OVC011/// 18/16 Q1016
  • 162250Z AUTO 34008KT 9999 // SCT009/// SCT017/// BKN022/// 18/16 Q1016
  • 162220Z AUTO 32009KT 290V350 9999 -SHRA SCT014/// SCT029/// BKN037/// 18/16 Q1016

TAF TAF EBAW
Valid from the 17 at 00:00 until the 17 at 09:00 UTC


162300Z 1700/1709 30005KT 9999 SCT020
TEMPO 1700/1704 4000 SHRA RA BKN012 SCT030CB
PROB40
TEMPO 1700/1703 VRB18G30KT 2500 TSRA BKN007 BKN014CB
PROB30
TEMPO 1704/1706 3000 BR BKN006
No reported NOTAMs for that airfield.
1 SIGMET reported for the Brussels FIR (EBBU) :
 
Embedded thunderstorms
EBBU SIGMET 02 VALID 162317/170217 EBBR
EBBU BRUSSELS FIR EMBD TS OBS W OF LINE N5021 E00349 - N5121 E00421 TOP FL380 MOV NE 10KT NC=



MET'MAP, your aeronautical weather chart ! - Copyright ORBIFLY December 2007 - Disclaimer

ORBIFLY MET'MAP TEAM :

Programming & Development : Alexandra Zaïnal
Concept & Development : Baudouin d'Aumeries
Co-Development & Prog : Marc-Olivier Méhu
Technical & hardware support : Manuel Goepfert

Contact : metmap@orbifly.com




SOURCES & CREDITS :

   NOAA